createdAt,value
2023-05-04T00:01:08.042Z,95.27
2023-05-04T00:02:48.727Z,95.16
2023-05-04T00:04:28.916Z,95.36
2023-05-04T00:06:09.354Z,95.93
2023-05-04T00:07:49.774Z,96.09
2023-05-04T00:09:30.262Z,96.14
2023-05-04T00:11:10.590Z,96.23
2023-05-04T00:12:51.000Z,96
2023-05-04T00:14:31.419Z,96
2023-05-04T00:16:11.902Z,96.28
2023-05-04T00:17:52.250Z,96.31
2023-05-04T00:19:32.619Z,96.3
2023-05-04T00:21:13.043Z,96.31
2023-05-04T00:22:53.519Z,96.33
2023-05-04T00:24:33.924Z,96.42
2023-05-04T00:26:14.342Z,96.36
2023-05-04T00:27:54.756Z,96.51
2023-05-04T00:29:35.144Z,96.54
2023-05-04T00:31:15.605Z,96.62
2023-05-04T00:32:56.028Z,96.84
2023-05-04T00:34:36.490Z,96.96
2023-05-04T00:36:16.902Z,96.97
2023-05-04T00:37:57.257Z,96.95
2023-05-04T00:39:37.690Z,96.97
2023-05-04T00:41:18.128Z,97.04
2023-05-04T00:42:58.468Z,96.84
2023-05-04T00:44:38.857Z,96.46
2023-05-04T00:46:19.340Z,96.4
2023-05-04T00:47:59.793Z,96.56
2023-05-04T00:49:40.118Z,96.66
2023-05-04T00:51:20.580Z,96.7
2023-05-04T00:53:00.999Z,96.64
2023-05-04T00:54:41.412Z,96.54
2023-05-04T00:56:21.869Z,96.66
2023-05-04T00:58:02.315Z,96.69
2023-05-04T00:59:42.821Z,96.77
2023-05-04T01:01:23.193Z,96.79
2023-05-04T01:03:03.659Z,96.84
2023-05-04T01:04:43.955Z,96.73
2023-05-04T01:06:24.365Z,96.64
2023-05-04T01:08:04.718Z,96.58
2023-05-04T01:09:45.156Z,96.7
2023-05-04T01:11:25.529Z,96.71
2023-05-04T01:13:06.025Z,96.7
2023-05-04T01:14:46.289Z,96.76
2023-05-04T01:16:26.680Z,97
2023-05-04T01:18:07.200Z,97.33
2023-05-04T01:19:47.486Z,97.42
2023-05-04T01:21:27.875Z,97.46
2023-05-04T01:23:08.312Z,97.5
2023-05-04T01:24:48.671Z,97.43
2023-05-04T01:26:29.070Z,97.41
2023-05-04T01:28:09.431Z,97.4
2023-05-04T01:29:49.846Z,97.4
2023-05-04T01:31:30.224Z,97.34
2023-05-04T01:33:10.566Z,97.37
2023-05-04T01:34:50.969Z,97.38
2023-05-04T01:36:31.365Z,97.37
2023-05-04T01:38:11.837Z,97.16
2023-05-04T01:39:52.273Z,96.94
2023-05-04T01:41:32.657Z,96.69
2023-05-04T01:43:13.132Z,96.53
2023-05-04T01:44:53.475Z,96.48
2023-05-04T01:46:33.881Z,96.63
2023-05-04T01:48:14.258Z,97
2023-05-04T01:49:54.720Z,97.08
2023-05-04T01:51:35.072Z,96.96
2023-05-04T01:53:15.476Z,96.75
2023-05-04T01:54:55.912Z,96.7
2023-05-04T01:56:36.237Z,96.7
2023-05-04T01:58:16.618Z,97.03
2023-05-04T01:59:56.979Z,97.14
2023-05-04T02:01:37.433Z,97.16
2023-05-04T02:03:17.816Z,97.29
2023-05-04T02:04:58.162Z,97.5
2023-05-04T02:06:38.551Z,97.7
2023-05-04T02:08:18.998Z,97.77
2023-05-04T02:09:59.397Z,97.66
2023-05-04T02:11:39.809Z,97.64
2023-05-04T02:13:20.286Z,97.52
2023-05-04T02:15:00.551Z,97.57
2023-05-04T02:16:41.048Z,97.4
2023-05-04T02:18:21.393Z,97.32
2023-05-04T02:20:01.898Z,97.36
2023-05-04T02:21:42.280Z,97.47
2023-05-04T02:23:22.728Z,97.51
2023-05-04T02:25:03.102Z,97.46
2023-05-04T02:26:43.566Z,97.47
2023-05-04T02:28:23.997Z,97.57
2023-05-04T02:30:04.602Z,97.73
2023-05-04T02:31:44.818Z,97.69
2023-05-04T02:33:25.234Z,97.61
2023-05-04T02:35:05.656Z,97.66
2023-05-04T02:36:46.003Z,97.67
2023-05-04T02:38:26.430Z,97.72
2023-05-04T02:40:07.092Z,97.82
2023-05-04T02:41:47.175Z,97.87
2023-05-04T02:43:27.612Z,97.97
2023-05-04T02:45:07.995Z,98.04
2023-05-04T02:46:48.389Z,98.17
2023-05-04T02:48:28.742Z,98.33
2023-05-04T02:50:09.168Z,98.29
2023-05-04T02:51:49.427Z,98.46
2023-05-04T02:53:29.836Z,98.58
2023-05-04T02:55:10.204Z,98.63
2023-05-04T02:56:50.554Z,98.55
2023-05-04T02:58:31.001Z,98.61
2023-05-04T03:00:11.452Z,98.63
2023-05-04T03:01:51.946Z,98.7
2023-05-04T03:03:32.162Z,98.7
2023-05-04T03:05:12.534Z,98.58
2023-05-04T03:06:53.040Z,98.58
2023-05-04T03:08:33.405Z,98.68
2023-05-04T03:10:13.829Z,98.77
2023-05-04T03:11:54.205Z,98.73
2023-05-04T03:13:34.589Z,98.64
2023-05-04T03:15:15.021Z,98.66
2023-05-04T03:16:55.473Z,98.63
2023-05-04T03:18:35.784Z,98.65
2023-05-04T03:20:16.216Z,98.65
2023-05-04T03:21:56.611Z,98.73
2023-05-04T03:23:37.085Z,98.86
2023-05-04T03:25:17.507Z,98.94
2023-05-04T03:26:57.984Z,98.95
2023-05-04T03:28:38.394Z,98.96
2023-05-04T03:30:18.800Z,98.94
2023-05-04T03:31:59.294Z,98.88
2023-05-04T03:33:39.684Z,98.85
2023-05-04T03:35:24.729Z,98.7
2023-05-04T03:37:00.441Z,98.63
2023-05-04T03:38:40.786Z,98.63
2023-05-04T03:40:21.216Z,98.66
2023-05-04T03:42:01.629Z,98.68
2023-05-04T03:43:41.919Z,98.69
2023-05-04T03:45:22.308Z,98.73
2023-05-04T03:47:02.740Z,98.72
2023-05-04T03:48:43.158Z,98.84
2023-05-04T03:50:23.566Z,98.73
2023-05-04T03:52:03.975Z,98.77
2023-05-04T03:53:45.046Z,98.77
2023-05-04T03:55:24.701Z,98.75
2023-05-04T03:57:05.138Z,98.86
2023-05-04T03:58:45.541Z,98.93
2023-05-04T04:00:25.938Z,98.99
2023-05-04T04:02:06.502Z,99.09
2023-05-04T04:03:46.918Z,99.13
2023-05-04T04:05:27.247Z,99.16
2023-05-04T04:07:07.662Z,99.19
2023-05-04T04:08:48.105Z,99.21
2023-05-04T04:10:28.562Z,99.14
2023-05-04T04:12:08.948Z,99.16
2023-05-04T04:13:49.338Z,99.23
2023-05-04T04:15:29.755Z,99.19
2023-05-04T04:17:10.146Z,99.25
2023-05-04T04:18:50.554Z,99.26
2023-05-04T04:20:31.010Z,99.29
2023-05-04T04:22:11.395Z,99.28
2023-05-04T04:23:51.789Z,99.37
2023-05-04T04:25:32.216Z,99.36
2023-05-04T04:27:12.712Z,99.33
2023-05-04T04:28:53.142Z,99.26
2023-05-04T04:30:33.654Z,99.25
2023-05-04T04:32:14.059Z,99.23
2023-05-04T04:33:54.542Z,99.19
2023-05-04T04:35:35.009Z,99.16
2023-05-04T04:37:15.427Z,99.13
2023-05-04T04:38:55.832Z,99.11
2023-05-04T04:40:36.204Z,99.11
2023-05-04T04:42:16.709Z,99.03
2023-05-04T04:43:57.193Z,98.97
2023-05-04T04:45:37.563Z,98.92
2023-05-04T04:47:17.926Z,98.92
2023-05-04T04:48:58.389Z,98.85
2023-05-04T04:50:38.803Z,98.85
2023-05-04T04:52:19.207Z,98.81
2023-05-04T04:53:59.538Z,98.76
2023-05-04T04:55:39.909Z,98.73
2023-05-04T04:57:20.343Z,98.72
2023-05-04T04:59:00.808Z,98.65
2023-05-04T05:00:41.257Z,98.66
2023-05-04T05:02:21.767Z,98.67
2023-05-04T05:04:02.201Z,98.73
2023-05-04T05:05:42.650Z,98.58
2023-05-04T05:07:22.963Z,98.42
2023-05-04T05:09:03.431Z,98.3
2023-05-04T05:10:44.201Z,98.17
2023-05-04T05:12:24.302Z,98.1
2023-05-04T05:14:04.764Z,98.02
2023-05-04T05:15:45.158Z,97.76
2023-05-04T05:17:25.671Z,97.64
2023-05-04T05:19:06.020Z,97.52
2023-05-04T05:20:46.452Z,97.18
2023-05-04T05:22:26.889Z,96.9
2023-05-04T05:24:07.327Z,96.4
2023-05-04T05:25:47.789Z,95.92
2023-05-04T05:27:28.268Z,95.13
2023-05-04T05:29:08.639Z,94.65
2023-05-04T05:30:49.030Z,93.88
2023-05-04T05:32:29.541Z,93.74
2023-05-04T05:34:09.886Z,93.35
2023-05-04T05:35:50.378Z,93.1
2023-05-04T05:37:30.803Z,92.77
2023-05-04T05:39:11.322Z,92.85
2023-05-04T05:40:51.752Z,91.75
2023-05-04T05:42:32.162Z,90.09
2023-05-04T05:44:13.348Z,89.5
2023-05-04T05:45:53.132Z,88.61
2023-05-04T05:47:33.593Z,87.87
2023-05-04T05:49:13.916Z,87.02
2023-05-04T05:50:54.349Z,86.67
2023-05-04T05:52:34.727Z,85.33
2023-05-04T05:54:15.127Z,84.51
2023-05-04T05:55:55.588Z,82.71
2023-05-04T05:57:36.007Z,81.27
2023-05-04T05:59:16.389Z,80.66
2023-05-04T06:00:56.841Z,80.86
2023-05-04T06:02:37.352Z,79.54
2023-05-04T06:04:17.779Z,79.47
2023-05-04T06:05:58.028Z,79.65
2023-05-04T06:07:38.419Z,78.41
2023-05-04T06:09:18.890Z,78.18
2023-05-04T06:10:59.312Z,76.61
2023-05-04T06:12:39.906Z,76.51
2023-05-04T06:14:20.170Z,75.12
2023-05-04T06:16:00.615Z,75.81
2023-05-04T06:17:41.106Z,74.98
2023-05-04T06:19:21.461Z,73.63
2023-05-04T06:21:01.940Z,73.46
2023-05-04T06:22:42.325Z,72.47
2023-05-04T06:24:22.761Z,71.75
2023-05-04T06:26:03.195Z,69.15
2023-05-04T06:27:43.735Z,70.86
2023-05-04T06:29:24.081Z,70.23
2023-05-04T06:31:04.454Z,69.87
2023-05-04T06:32:44.994Z,69.2
2023-05-04T06:34:25.378Z,69.46
2023-05-04T06:36:05.785Z,69.23
2023-05-04T06:37:46.352Z,68.9
2023-05-04T06:39:26.654Z,68.85
2023-05-04T06:41:07.090Z,68.07
2023-05-04T06:42:47.504Z,66.87
2023-05-04T06:44:27.854Z,67.4
2023-05-04T06:46:08.321Z,65.78
2023-05-04T06:47:48.769Z,66.16
2023-05-04T06:49:29.189Z,66.79
2023-05-04T06:51:09.563Z,64.89
2023-05-04T06:52:49.956Z,64.79
2023-05-04T06:54:30.403Z,64.76
2023-05-04T06:56:10.833Z,63.48
2023-05-04T06:57:51.205Z,64.27
2023-05-04T06:59:31.592Z,64.38
2023-05-04T07:01:12.090Z,64.47
2023-05-04T07:02:52.423Z,63.23
2023-05-04T07:04:32.799Z,62.82
2023-05-04T07:06:13.227Z,62
2023-05-04T07:07:53.702Z,61.75
2023-05-04T07:09:34.132Z,61.76
2023-05-04T07:11:14.500Z,60.25
2023-05-04T07:12:54.927Z,58.8
2023-05-04T07:14:35.275Z,59.58
2023-05-04T07:16:15.802Z,58.02
2023-05-04T07:17:56.108Z,57.87
2023-05-04T07:19:36.501Z,58.18
2023-05-04T07:21:27.676Z,57.77
2023-05-04T07:22:57.400Z,57.78
2023-05-04T07:24:37.797Z,58.47
2023-05-04T07:26:18.227Z,59.65
2023-05-04T07:27:58.618Z,58.3
2023-05-04T07:29:39.050Z,56.29
2023-05-04T07:31:19.452Z,56.34
2023-05-04T07:32:59.915Z,55.99
2023-05-04T07:34:45.831Z,54.7
2023-05-04T07:36:20.735Z,56.82
2023-05-04T07:38:01.208Z,55.84
2023-05-04T07:39:41.585Z,53.72
2023-05-04T07:41:21.973Z,51.26
2023-05-04T07:43:02.355Z,53.15
2023-05-04T07:44:42.776Z,52.49
2023-05-04T07:46:23.112Z,53.32
2023-05-04T07:48:03.490Z,52.04
2023-05-04T07:49:43.837Z,51.65
2023-05-04T07:51:24.264Z,50.95
2023-05-04T07:53:04.722Z,51.06
2023-05-04T07:54:45.124Z,51.08
2023-05-04T07:56:25.523Z,51.27
2023-05-04T07:58:05.891Z,50.7
2023-05-04T07:59:46.328Z,49.36
2023-05-04T08:01:26.717Z,50.1
2023-05-04T08:03:07.301Z,47.62
2023-05-04T08:04:47.643Z,49.52
2023-05-04T08:06:28.099Z,47.88
2023-05-04T08:08:08.608Z,51.26
2023-05-04T08:09:49.049Z,45.88
2023-05-04T08:11:29.476Z,44.33
2023-05-04T08:13:10.111Z,45.85
2023-05-04T08:14:50.413Z,45.37
2023-05-04T08:16:30.779Z,46.59
2023-05-04T08:18:11.229Z,44.43
2023-05-04T08:19:51.677Z,45.24
2023-05-04T08:21:32.078Z,45.86
2023-05-04T08:23:12.484Z,47.23
2023-05-04T08:24:52.907Z,45.14
2023-05-04T08:26:33.325Z,44.68
2023-05-04T08:28:13.797Z,44.74
2023-05-04T08:29:54.162Z,45.71
2023-05-04T08:31:34.715Z,44.11
2023-05-04T08:33:15.106Z,44.48
2023-05-04T08:34:55.590Z,44.57
2023-05-04T08:36:36.007Z,43.47
2023-05-04T08:38:16.420Z,44.37
2023-05-04T08:39:56.812Z,45.74
2023-05-04T08:41:37.215Z,45.86
2023-05-04T08:43:17.684Z,45.66
2023-05-04T08:44:58.121Z,43.88
2023-05-04T08:46:38.516Z,44.1
2023-05-04T08:48:18.904Z,43.7
2023-05-04T08:49:59.345Z,44.06
2023-05-04T08:51:39.863Z,45.32
2023-05-04T08:53:20.274Z,44.26
2023-05-04T08:55:00.728Z,43.98
2023-05-04T08:56:41.183Z,44.02
2023-05-04T08:58:21.485Z,45.74
2023-05-04T09:00:01.922Z,45.78
2023-05-04T09:01:42.359Z,42.24
2023-05-04T09:03:22.804Z,43.66
2023-05-04T09:05:03.426Z,44.03
2023-05-04T09:06:43.622Z,43.01
2023-05-04T09:08:24.030Z,42.07
2023-05-04T09:10:04.428Z,42.79
2023-05-04T09:11:44.880Z,40.38
2023-05-04T09:13:25.411Z,44.2
2023-05-04T09:15:06.281Z,40.43
2023-05-04T09:16:46.392Z,40.63
2023-05-04T09:18:26.746Z,40.02
2023-05-04T09:20:07.187Z,39.97
2023-05-04T09:21:47.616Z,39.74
2023-05-04T09:23:28.039Z,39.89
2023-05-04T09:25:08.465Z,39.89
2023-05-04T09:26:48.905Z,37.82
2023-05-04T09:28:29.285Z,39.41
2023-05-04T09:30:09.812Z,37.79
2023-05-04T09:31:50.133Z,38.61
2023-05-04T09:33:30.504Z,38.19
2023-05-04T09:35:14.187Z,37.3
2023-05-04T09:36:51.327Z,37.8
2023-05-04T09:38:31.753Z,37.79
2023-05-04T09:40:12.159Z,36.94
2023-05-04T09:41:52.541Z,42.43
2023-05-04T09:43:32.943Z,40.17
2023-05-04T09:45:13.374Z,37.32
2023-05-04T09:46:53.770Z,37.44
2023-05-04T09:48:34.102Z,38.79
2023-05-04T09:50:15.106Z,38.3
2023-05-04T09:51:54.879Z,37.13
2023-05-04T09:53:35.274Z,38.35
2023-05-04T09:55:15.718Z,36.87
2023-05-04T09:56:56.079Z,37.65
2023-05-04T09:58:36.473Z,36.44
2023-05-04T10:00:16.975Z,36.94
2023-05-04T10:01:58.715Z,37.23
2023-05-04T10:03:37.785Z,39.36
2023-05-04T10:05:18.376Z,37.42
2023-05-04T10:06:58.626Z,36.1
2023-05-04T10:08:39.073Z,35.56
2023-05-04T10:10:19.558Z,34.82
2023-05-04T10:12:00.575Z,36.21
2023-05-04T10:13:40.437Z,37.7
2023-05-04T10:15:20.858Z,37.31
2023-05-04T10:17:01.227Z,38.39
2023-05-04T10:18:41.668Z,38.14
2023-05-04T10:20:22.027Z,34.74
2023-05-04T10:22:02.453Z,37.4
2023-05-04T10:23:42.859Z,35.65
2023-05-04T10:25:23.294Z,37
2023-05-04T10:27:03.700Z,37.45
2023-05-04T10:28:44.129Z,37.03
2023-05-04T10:30:24.516Z,35.3
2023-05-04T10:32:04.984Z,37.56
2023-05-04T10:33:45.294Z,35.18
2023-05-04T10:35:25.691Z,37.13
2023-05-04T10:37:06.126Z,34.65
2023-05-04T10:38:46.663Z,34.69
2023-05-04T10:40:26.929Z,34.19
2023-05-04T10:42:07.414Z,36.57
2023-05-04T10:43:47.738Z,35.77
2023-05-04T10:45:28.192Z,36.09
2023-05-04T10:47:08.510Z,34.36
2023-05-04T10:48:48.886Z,35.88
2023-05-04T10:50:29.313Z,35.06
2023-05-04T10:52:09.811Z,34.1
2023-05-04T10:53:50.239Z,35.3
2023-05-04T10:55:30.608Z,34.58
2023-05-04T10:57:11.067Z,34.96
2023-05-04T10:58:51.532Z,35.13
2023-05-04T11:00:31.933Z,35.05
2023-05-04T11:02:12.399Z,37.95
2023-05-04T11:03:52.949Z,35.62
2023-05-04T11:05:33.198Z,35.64
2023-05-04T11:07:13.654Z,34.31
2023-05-04T11:08:54.007Z,36.75
2023-05-04T11:10:34.466Z,35.34
2023-05-04T11:12:14.830Z,35.65
2023-05-04T11:13:55.268Z,33.79
2023-05-04T11:15:35.622Z,33.16
2023-05-04T11:18:56.350Z,34.95
2023-05-04T11:20:36.796Z,35.83
2023-05-04T11:22:17.231Z,34.08
2023-05-04T11:23:57.620Z,33.61
2023-05-04T11:25:38.073Z,33.85
2023-05-04T11:27:18.528Z,34.25
2023-05-04T11:28:58.975Z,33.45
2023-05-04T11:30:39.462Z,34.26
2023-05-04T11:32:19.865Z,33.26
2023-05-04T11:34:00.288Z,33.73
2023-05-04T11:35:40.682Z,34.53
2023-05-04T11:37:21.127Z,34.76
2023-05-04T11:39:01.557Z,34.97
2023-05-04T11:40:42.023Z,35.09
2023-05-04T11:42:22.447Z,33.34
2023-05-04T11:44:02.909Z,33.61
2023-05-04T11:45:43.325Z,34.21
2023-05-04T11:47:23.712Z,36.41
2023-05-04T11:49:04.089Z,36.74
2023-05-04T11:50:44.477Z,35.01
2023-05-04T11:52:24.833Z,36.56
2023-05-04T11:54:05.319Z,35.82
2023-05-04T11:55:45.722Z,37.97
2023-05-04T11:57:26.218Z,36.41
2023-05-04T11:59:06.577Z,37.37
2023-05-04T12:00:47.081Z,34.15
2023-05-04T12:02:27.482Z,35.01
2023-05-04T12:04:08.066Z,32.58
2023-05-04T12:05:48.449Z,33.69
2023-05-04T12:07:28.798Z,36.53
2023-05-04T12:09:09.267Z,36.42
2023-05-04T12:10:49.801Z,35.45
2023-05-04T12:12:33.333Z,33.03
2023-05-04T12:14:10.649Z,35.46
2023-05-04T12:15:51.006Z,33.68
2023-05-04T12:17:31.475Z,32.66
2023-05-04T12:19:11.942Z,32.36
2023-05-04T12:20:52.338Z,33.03
2023-05-04T12:22:32.733Z,36.76
2023-05-04T12:24:13.150Z,35.78
2023-05-04T12:25:58.144Z,32.77
2023-05-04T12:27:33.999Z,33.85
2023-05-04T12:29:14.434Z,33.11
2023-05-04T12:30:54.838Z,33.53
2023-05-04T12:32:35.321Z,35.38
2023-05-04T12:34:15.683Z,32.93
2023-05-04T12:35:56.102Z,30.55
2023-05-04T12:37:36.612Z,32.63
2023-05-04T12:39:17.124Z,34.2
2023-05-04T12:40:57.565Z,33.17
2023-05-04T12:42:37.842Z,35.47
2023-05-04T12:44:18.284Z,34.75
2023-05-04T12:45:58.727Z,32.81
2023-05-04T12:47:39.159Z,32.5
2023-05-04T12:49:19.529Z,34.03
2023-05-04T12:50:59.986Z,34.78
2023-05-04T12:52:40.402Z,34.47
2023-05-04T12:54:20.866Z,33.53
2023-05-04T12:56:01.240Z,31.51
2023-05-04T12:57:41.660Z,32.39
2023-05-04T12:59:22.117Z,33.83
2023-05-04T13:01:02.544Z,31.72
2023-05-04T13:02:43.101Z,31.58
2023-05-04T13:04:23.513Z,35.17
2023-05-04T13:06:03.957Z,33.34
2023-05-04T13:07:44.370Z,32.91
2023-05-04T13:09:24.793Z,34.31
2023-05-04T13:11:05.186Z,31.88
2023-05-04T13:12:46.227Z,31.64
2023-05-04T13:14:25.956Z,32.52
2023-05-04T13:16:06.394Z,34.42
2023-05-04T13:17:46.724Z,34.11
2023-05-04T13:19:27.121Z,29.86
2023-05-04T13:21:07.590Z,33.59
2023-05-04T13:22:48.048Z,35.03
2023-05-04T13:24:28.510Z,31.81
2023-05-04T13:26:08.939Z,33.93
2023-05-04T13:27:49.342Z,32.64
2023-05-04T13:29:29.815Z,35.38
2023-05-04T13:31:10.220Z,33.18
2023-05-04T13:32:50.623Z,33.63
2023-05-04T13:34:30.999Z,34.53
2023-05-04T13:36:11.374Z,32.3
2023-05-04T13:37:51.790Z,29.98
2023-05-04T13:39:32.195Z,30.41
2023-05-04T13:41:12.590Z,31.24
2023-05-04T13:42:52.975Z,30.83
2023-05-04T13:44:33.340Z,30.71
2023-05-04T13:46:13.726Z,30.86
2023-05-04T13:47:54.143Z,30.26
2023-05-04T13:49:34.528Z,29.87
2023-05-04T13:51:14.929Z,31.35
2023-05-04T13:52:55.360Z,32
2023-05-04T13:54:35.788Z,31.3
2023-05-04T13:56:16.199Z,30.19
2023-05-04T13:57:56.631Z,28.67
2023-05-04T13:59:37.004Z,32.03
2023-05-04T14:01:17.468Z,31.86
2023-05-04T14:02:57.936Z,31.09
2023-05-04T14:04:39.868Z,31.79
2023-05-04T14:06:18.683Z,28.93
2023-05-04T14:07:59.082Z,31
2023-05-04T14:09:39.418Z,30.29
2023-05-04T14:11:19.836Z,30.13
2023-05-04T14:13:00.317Z,31.71
2023-05-04T14:14:40.705Z,29.84
2023-05-04T14:16:21.199Z,31.11
2023-05-04T14:18:01.692Z,31.84
2023-05-04T14:19:41.964Z,31.95
2023-05-04T14:21:22.405Z,29.92
2023-05-04T14:23:02.778Z,29.26
2023-05-04T14:24:43.247Z,29.46
2023-05-04T14:26:23.696Z,28.98
2023-05-04T14:28:04.122Z,28.68
2023-05-04T14:29:46.460Z,30.27
2023-05-04T14:31:25.017Z,30.29
2023-05-04T14:33:05.402Z,29.88
2023-05-04T14:34:45.785Z,30.2
2023-05-04T14:36:26.249Z,28.64
2023-05-04T14:38:06.629Z,28.88
2023-05-04T14:39:47.064Z,30.84
2023-05-04T14:41:27.476Z,30.11
2023-05-04T14:43:07.828Z,29.84
2023-05-04T14:44:48.184Z,29.28
2023-05-04T14:46:28.650Z,31.15
2023-05-04T14:48:09.240Z,31.84
2023-05-04T14:49:49.519Z,28.38
2023-05-04T14:51:29.950Z,29.29
2023-05-04T14:53:10.372Z,30.22
2023-05-04T14:54:50.749Z,30.05
2023-05-04T14:56:31.223Z,30.72
2023-05-04T14:58:11.614Z,29.91
2023-05-04T14:59:52.084Z,31.35
2023-05-04T15:01:32.567Z,31.18
2023-05-04T15:03:13.005Z,31.16
2023-05-04T15:04:53.441Z,32.02
2023-05-04T15:06:33.764Z,31.46
2023-05-04T15:08:14.207Z,32.51
2023-05-04T15:09:54.592Z,30.32
2023-05-04T15:11:34.988Z,30.89
2023-05-04T15:13:15.526Z,30.72
2023-05-04T15:14:55.776Z,30.86
2023-05-04T15:16:36.241Z,31.25
2023-05-04T15:18:16.678Z,31.83
2023-05-04T15:19:57.025Z,31.49
2023-05-04T15:21:37.396Z,31.4
2023-05-04T15:23:17.799Z,31.13
2023-05-04T15:24:58.139Z,30.97
2023-05-04T15:26:38.621Z,33.29
2023-05-04T15:28:19.022Z,31.11
2023-05-04T15:29:59.393Z,31.92
2023-05-04T15:31:39.849Z,31.38
2023-05-04T15:33:20.226Z,32.47
2023-05-04T15:35:05.286Z,32.58
2023-05-04T15:36:41.051Z,31.92
2023-05-04T15:38:21.360Z,31.55
2023-05-04T15:40:02.671Z,31.82
2023-05-04T15:41:42.329Z,34.04
2023-05-04T15:43:22.767Z,32.58
2023-05-04T15:45:03.234Z,32.43
2023-05-04T15:46:43.808Z,32.71
2023-05-04T15:48:24.456Z,33.22
2023-05-04T15:50:05.088Z,34.04
2023-05-04T15:51:45.362Z,34.34
2023-05-04T15:53:25.812Z,34.26
2023-05-04T15:55:16.982Z,34.2
2023-05-04T15:56:46.692Z,33.7
2023-05-04T15:58:27.141Z,33.83
2023-05-04T16:00:07.816Z,33.79
2023-05-04T16:01:47.997Z,33.49
2023-05-04T16:03:28.513Z,32.79
2023-05-04T16:05:08.864Z,33.52
2023-05-04T16:06:49.200Z,33.37
2023-05-04T16:08:29.618Z,35.17
2023-05-04T16:10:10.228Z,34.35
2023-05-04T16:11:50.355Z,34.56
2023-05-04T16:13:30.731Z,34.84
2023-05-04T16:15:11.215Z,33.73
2023-05-04T16:16:51.820Z,35.45
2023-05-04T16:18:32.031Z,36.86
2023-05-04T16:20:12.485Z,34.58
2023-05-04T16:21:52.977Z,35.39
2023-05-04T16:23:33.312Z,36.24
2023-05-04T16:25:13.686Z,35.77
2023-05-04T16:26:54.139Z,35.64
2023-05-04T16:28:34.556Z,35.22
2023-05-04T16:30:15.040Z,35.59
2023-05-04T16:31:55.356Z,35.65
2023-05-04T16:33:35.782Z,36.23
2023-05-04T16:35:16.404Z,35.86
2023-05-04T16:36:56.648Z,37.13
2023-05-04T16:38:37.069Z,37.45
2023-05-04T16:40:17.426Z,38.11
2023-05-04T16:41:57.891Z,38.18
2023-05-04T16:43:38.298Z,38.74
2023-05-04T16:45:18.708Z,37.64
2023-05-04T16:46:59.195Z,37.58
2023-05-04T16:48:39.573Z,37.27
2023-05-04T16:50:20.032Z,38.88
2023-05-04T16:52:00.440Z,39.35
2023-05-04T16:53:40.797Z,38.87
2023-05-04T16:55:21.249Z,39.34
2023-05-04T16:57:01.660Z,39.72
2023-05-04T16:58:41.943Z,38.32
2023-05-04T17:00:22.354Z,39.03
2023-05-04T17:02:02.957Z,39.56
2023-05-04T17:03:43.335Z,39.59
2023-05-04T17:05:23.561Z,40.38
2023-05-04T17:07:04.013Z,39.93
2023-05-04T17:08:44.438Z,40.48
2023-05-04T17:10:24.786Z,41.11
2023-05-04T17:12:05.232Z,40.53
2023-05-04T17:13:45.551Z,41.66
2023-05-04T17:15:26.007Z,41.76
2023-05-04T17:17:06.347Z,42.01
2023-05-04T17:18:46.813Z,42.91
2023-05-04T17:20:27.233Z,42.65
2023-05-04T17:22:07.625Z,42.7
2023-05-04T17:23:48.002Z,43.62
2023-05-04T17:25:28.497Z,43.65
2023-05-04T17:27:08.961Z,43.45
2023-05-04T17:28:49.368Z,44.54
2023-05-04T17:30:29.801Z,44.02
2023-05-04T17:32:10.296Z,43.6
2023-05-04T17:33:50.629Z,44.43
2023-05-04T17:35:31.024Z,44.41
2023-05-04T17:37:11.403Z,44.29
2023-05-04T17:38:51.847Z,44.96
2023-05-04T17:40:32.225Z,44.85
2023-05-04T17:42:12.575Z,45.29
2023-05-04T17:43:53.122Z,45.8
2023-05-04T17:45:33.579Z,45.4
2023-05-04T17:47:13.997Z,45.8
2023-05-04T17:48:54.393Z,46.5
2023-05-04T17:50:34.756Z,46.85
2023-05-04T17:52:15.176Z,47.26
2023-05-04T17:53:55.607Z,47.8
2023-05-04T17:55:35.982Z,48.04
2023-05-04T17:57:16.513Z,47.75
2023-05-04T17:58:56.871Z,49.15
2023-05-04T18:00:37.322Z,48.48
2023-05-04T18:02:17.642Z,49.01
2023-05-04T18:03:58.165Z,48.9
2023-05-04T18:05:38.489Z,50.87
2023-05-04T18:07:18.902Z,50.65
2023-05-04T18:08:59.253Z,51.04
2023-05-04T18:10:39.628Z,50.98
2023-05-04T18:12:20.042Z,51.5
2023-05-04T18:14:00.515Z,51.87
2023-05-04T18:15:40.965Z,53.2
2023-05-04T18:17:21.408Z,53.59
2023-05-04T18:19:01.817Z,53.23
2023-05-04T18:20:42.154Z,54.36
2023-05-04T18:22:22.609Z,54.36
2023-05-04T18:24:03.063Z,54.5
2023-05-04T18:25:43.440Z,55.45
2023-05-04T18:27:23.812Z,55.65
2023-05-04T18:29:17.780Z,55.84
2023-05-04T18:30:44.693Z,56.09
2023-05-04T18:32:25.179Z,56.64
2023-05-04T18:34:05.520Z,57.27
2023-05-04T18:35:45.895Z,57.41
2023-05-04T18:37:26.390Z,57.72
2023-05-04T18:39:06.691Z,58.29
2023-05-04T18:40:47.050Z,58.84
2023-05-04T18:42:27.570Z,59.03
2023-05-04T18:44:07.893Z,59.1
2023-05-04T18:45:48.405Z,59.91
2023-05-04T18:47:28.808Z,59.64
2023-05-04T18:49:09.191Z,60.36
2023-05-04T18:50:49.567Z,60.56
2023-05-04T18:52:29.997Z,61.92
2023-05-04T18:54:10.368Z,61.86
2023-05-04T18:55:50.889Z,61.35
2023-05-04T18:57:31.320Z,61.38
2023-05-04T18:59:11.717Z,62.44
2023-05-04T19:00:52.131Z,63.01
2023-05-04T19:02:32.632Z,63.89
2023-05-04T19:04:12.938Z,62.9
2023-05-04T19:05:53.412Z,62.84
2023-05-04T19:07:33.812Z,62.94
2023-05-04T19:09:14.394Z,63.01
2023-05-04T19:10:54.812Z,63.37
2023-05-04T19:12:35.224Z,63.86
2023-05-04T19:14:15.674Z,64.22
2023-05-04T19:15:56.059Z,63.81
2023-05-04T19:17:36.470Z,64.32
2023-05-04T19:19:16.868Z,63.95
2023-05-04T19:20:57.259Z,63.85
2023-05-04T19:22:37.705Z,64.12
2023-05-04T19:24:18.135Z,64.31
2023-05-04T19:25:58.539Z,64.32
2023-05-04T19:27:39.032Z,64.19
2023-05-04T19:29:19.480Z,63.93
2023-05-04T19:30:59.894Z,64.47
2023-05-04T19:32:40.222Z,64.1
2023-05-04T19:34:20.535Z,65.41
2023-05-04T19:36:00.844Z,65.57
2023-05-04T19:37:41.136Z,65.86
2023-05-04T19:39:21.561Z,66.15
2023-05-04T19:41:05.045Z,66.86
2023-05-04T19:42:42.467Z,66.59
2023-05-04T19:44:22.878Z,67.39
2023-05-04T19:46:03.323Z,66.98
2023-05-04T19:47:43.708Z,67.08
2023-05-04T19:49:24.110Z,67.58
2023-05-04T19:51:04.525Z,67.84
2023-05-04T19:52:47.987Z,68
2023-05-04T19:54:25.299Z,67.45
2023-05-04T19:56:05.702Z,68.58
2023-05-04T19:57:49.177Z,68.74
2023-05-04T19:59:26.525Z,68.63
2023-05-04T20:01:06.955Z,69.14
2023-05-04T20:02:47.443Z,69.36
2023-05-04T20:04:27.761Z,68.61
2023-05-04T20:06:08.161Z,68.82
2023-05-04T20:07:48.583Z,70.2
2023-05-04T20:09:29.027Z,70.09
2023-05-04T20:11:09.410Z,70.16
2023-05-04T20:12:49.944Z,70.94
2023-05-04T20:14:30.178Z,70.9
2023-05-04T20:16:10.676Z,70.08
2023-05-04T20:17:51.001Z,70.88
2023-05-04T20:19:31.385Z,70.42
2023-05-04T20:21:11.712Z,70.75
2023-05-04T20:22:52.480Z,71.09
2023-05-04T20:24:32.623Z,71
2023-05-04T20:26:13.104Z,71.23
2023-05-04T20:27:53.533Z,71.5
2023-05-04T20:29:33.917Z,70.74
2023-05-04T20:31:14.352Z,69.98
2023-05-04T20:32:54.793Z,70.15
2023-05-04T20:34:35.081Z,70.13
2023-05-04T20:36:15.465Z,69.39
2023-05-04T20:37:55.902Z,69.18
2023-05-04T20:39:36.353Z,69.04
2023-05-04T20:41:16.753Z,68.95
2023-05-04T20:42:57.116Z,68.55
2023-05-04T20:44:37.508Z,68.69
2023-05-04T20:46:18.023Z,68.74
2023-05-04T20:47:58.499Z,69.31
2023-05-04T20:49:38.871Z,68.61
2023-05-04T20:51:19.254Z,68.52
2023-05-04T20:52:59.553Z,68.66
2023-05-04T20:54:39.913Z,68.67
2023-05-04T20:56:20.351Z,68.87
2023-05-04T20:58:00.696Z,69.45
2023-05-04T20:59:41.111Z,69.78
2023-05-04T21:01:21.576Z,70.75
2023-05-04T21:03:02.015Z,70.07
2023-05-04T21:04:42.282Z,70.12
2023-05-04T21:06:22.659Z,71.02
2023-05-04T21:08:03.088Z,69.74
2023-05-04T21:09:43.505Z,69.44
2023-05-04T21:11:23.909Z,69.25
2023-05-04T21:13:04.332Z,68.82
2023-05-04T21:14:44.659Z,68.6
2023-05-04T21:16:25.173Z,67.81
2023-05-04T21:18:05.490Z,67.65
2023-05-04T21:19:45.902Z,67.3
2023-05-04T21:21:26.311Z,66.79
2023-05-04T21:23:06.681Z,66.56
2023-05-04T21:24:47.107Z,67.07
2023-05-04T21:26:27.458Z,67.94
2023-05-04T21:28:07.783Z,68.01
2023-05-04T21:29:48.188Z,68.78
2023-05-04T21:31:28.595Z,68.52
2023-05-04T21:33:09.034Z,69.37
2023-05-04T21:34:49.419Z,68.84
2023-05-04T21:36:29.776Z,68.88
2023-05-04T21:38:10.052Z,68.55
2023-05-04T21:39:50.408Z,68.97